sensor_id;sensor_type;location;lat;lon;timestamp;temperature;humidity
12413;DHT22;13877;18.896;-99.222;2023-12-22T00:02:00;19.90;1.00
12413;DHT22;13877;18.896;-99.222;2023-12-22T00:04:28;19.60;1.00
12413;DHT22;13877;18.896;-99.222;2023-12-22T00:06:56;19.40;1.00
12413;DHT22;13877;18.896;-99.222;2023-12-22T00:09:24;19.20;1.00
12413;DHT22;13877;18.896;-99.222;2023-12-22T00:11:51;19.00;1.00
12413;DHT22;13877;18.896;-99.222;2023-12-22T00:14:19;18.90;1.00
12413;DHT22;13877;18.896;-99.222;2023-12-22T00:16:46;18.70;1.00
12413;DHT22;13877;18.896;-99.222;2023-12-22T00:19:15;18.70;1.00
12413;DHT22;13877;18.896;-99.222;2023-12-22T00:21:42;18.70;1.00
12413;DHT22;13877;18.896;-99.222;2023-12-22T00:24:11;18.80;1.00
12413;DHT22;13877;18.896;-99.222;2023-12-22T00:26:38;18.90;1.00
12413;DHT22;13877;18.896;-99.222;2023-12-22T00:29:05;19.00;1.00
12413;DHT22;13877;18.896;-99.222;2023-12-22T00:31:32;18.90;1.00
12413;DHT22;13877;18.896;-99.222;2023-12-22T00:34:00;18.80;1.00
12413;DHT22;13877;18.896;-99.222;2023-12-22T00:36:30;18.70;1.00
12413;DHT22;13877;18.896;-99.222;2023-12-22T00:38:57;18.50;1.00
12413;DHT22;13877;18.896;-99.222;2023-12-22T00:41:24;18.50;1.00
12413;DHT22;13877;18.896;-99.222;2023-12-22T00:43:51;18.60;1.00
12413;DHT22;13877;18.896;-99.222;2023-12-22T00:46:19;18.60;1.00
12413;DHT22;13877;18.896;-99.222;2023-12-22T00:48:46;18.70;1.00
12413;DHT22;13877;18.896;-99.222;2023-12-22T00:51:14;18.70;1.00
12413;DHT22;13877;18.896;-99.222;2023-12-22T00:53:43;18.60;1.00
12413;DHT22;13877;18.896;-99.222;2023-12-22T00:56:10;18.50;1.00
12413;DHT22;13877;18.896;-99.222;2023-12-22T00:58:40;18.40;1.00
12413;DHT22;13877;18.896;-99.222;2023-12-22T01:01:08;18.40;1.00
12413;DHT22;13877;18.896;-99.222;2023-12-22T01:03:35;18.50;1.00
12413;DHT22;13877;18.896;-99.222;2023-12-22T01:06:04;18.40;1.00
12413;DHT22;13877;18.896;-99.222;2023-12-22T01:08:33;18.40;1.00
12413;DHT22;13877;18.896;-99.222;2023-12-22T01:11:00;18.50;1.00
12413;DHT22;13877;18.896;-99.222;2023-12-22T01:13:28;18.50;1.00
12413;DHT22;13877;18.896;-99.222;2023-12-22T01:15:56;18.30;1.00
12413;DHT22;13877;18.896;-99.222;2023-12-22T01:18:24;18.40;1.00
12413;DHT22;13877;18.896;-99.222;2023-12-22T01:20:55;18.40;1.00
12413;DHT22;13877;18.896;-99.222;2023-12-22T01:23:23;18.30;1.00
12413;DHT22;13877;18.896;-99.222;2023-12-22T01:25:52;18.30;1.00
12413;DHT22;13877;18.896;-99.222;2023-12-22T01:28:19;18.30;1.00
12413;DHT22;13877;18.896;-99.222;2023-12-22T01:30:51;18.40;1.00
12413;DHT22;13877;18.896;-99.222;2023-12-22T01:33:46;18.20;1.00
12413;DHT22;13877;18.896;-99.222;2023-12-22T01:36:14;17.90;1.00
12413;DHT22;13877;18.896;-99.222;2023-12-22T01:38:41;17.90;1.00
12413;DHT22;13877;18.896;-99.222;2023-12-22T01:41:08;17.90;1.00
12413;DHT22;13877;18.896;-99.222;2023-12-22T01:43:35;17.90;1.00
12413;DHT22;13877;18.896;-99.222;2023-12-22T01:46:04;17.90;1.00
12413;DHT22;13877;18.896;-99.222;2023-12-22T01:48:31;17.80;1.00
12413;DHT22;13877;18.896;-99.222;2023-12-22T01:51:00;17.60;1.00
12413;DHT22;13877;18.896;-99.222;2023-12-22T01:53:28;17.60;1.00
12413;DHT22;13877;18.896;-99.222;2023-12-22T01:55:57;17.70;1.00
12413;DHT22;13877;18.896;-99.222;2023-12-22T01:58:25;17.80;1.00
12413;DHT22;13877;18.896;-99.222;2023-12-22T02:00:53;17.90;1.00
12413;DHT22;13877;18.896;-99.222;2023-12-22T02:03:22;18.00;1.00
12413;DHT22;13877;18.896;-99.222;2023-12-22T02:05:49;18.10;1.00
12413;DHT22;13877;18.896;-99.222;2023-12-22T02:08:21;18.00;1.00
12413;DHT22;13877;18.896;-99.222;2023-12-22T02:10:54;18.00;1.00
12413;DHT22;13877;18.896;-99.222;2023-12-22T02:13:22;18.00;1.00
12413;DHT22;13877;18.896;-99.222;2023-12-22T02:15:56;18.00;1.00
12413;DHT22;13877;18.896;-99.222;2023-12-22T02:18:35;18.10;1.00
12413;DHT22;13877;18.896;-99.222;2023-12-22T02:21:07;18.00;1.00
12413;DHT22;13877;18.896;-99.222;2023-12-22T02:23:34;18.00;1.00
12413;DHT22;13877;18.896;-99.222;2023-12-22T02:26:42;18.00;1.00
12413;DHT22;13877;18.896;-99.222;2023-12-22T02:29:12;18.00;1.00
12413;DHT22;13877;18.896;-99.222;2023-12-22T02:31:43;18.00;1.00
12413;DHT22;13877;18.896;-99.222;2023-12-22T02:34:20;18.10;1.00
12413;DHT22;13877;18.896;-99.222;2023-12-22T02:36:49;18.10;1.00
12413;DHT22;13877;18.896;-99.222;2023-12-22T02:39:21;18.00;1.00
12413;DHT22;13877;18.896;-99.222;2023-12-22T02:41:49;18.00;1.00
12413;DHT22;13877;18.896;-99.222;2023-12-22T02:44:16;18.00;1.00
12413;DHT22;13877;18.896;-99.222;2023-12-22T02:46:44;18.10;1.00
12413;DHT22;13877;18.896;-99.222;2023-12-22T02:49:15;18.10;1.00
12413;DHT22;13877;18.896;-99.222;2023-12-22T02:51:45;18.20;1.00
12413;DHT22;13877;18.896;-99.222;2023-12-22T02:54:12;18.20;1.00
12413;DHT22;13877;18.896;-99.222;2023-12-22T02:56:40;18.20;1.00
12413;DHT22;13877;18.896;-99.222;2023-12-22T02:59:11;18.20;1.00
12413;DHT22;13877;18.896;-99.222;2023-12-22T03:01:38;18.10;1.00
12413;DHT22;13877;18.896;-99.222;2023-12-22T03:04:07;18.00;1.00
12413;DHT22;13877;18.896;-99.222;2023-12-22T03:06:34;18.00;1.00
12413;DHT22;13877;18.896;-99.222;2023-12-22T03:09:01;18.00;1.00
12413;DHT22;13877;18.896;-99.222;2023-12-22T03:11:29;17.90;1.00
12413;DHT22;13877;18.896;-99.222;2023-12-22T03:13:59;17.90;1.00
12413;DHT22;13877;18.896;-99.222;2023-12-22T03:16:26;17.80;1.00
12413;DHT22;13877;18.896;-99.222;2023-12-22T03:18:55;17.70;1.00
12413;DHT22;13877;18.896;-99.222;2023-12-22T03:21:22;17.70;1.00
12413;DHT22;13877;18.896;-99.222;2023-12-22T03:23:50;17.60;1.00
12413;DHT22;13877;18.896;-99.222;2023-12-22T03:26:18;17.60;1.00
12413;DHT22;13877;18.896;-99.222;2023-12-22T03:28:46;17.50;1.00
12413;DHT22;13877;18.896;-99.222;2023-12-22T03:31:13;17.60;1.00
12413;DHT22;13877;18.896;-99.222;2023-12-22T03:33:41;17.50;1.00
12413;DHT22;13877;18.896;-99.222;2023-12-22T03:36:09;17.60;1.00
12413;DHT22;13877;18.896;-99.222;2023-12-22T03:38:37;17.70;1.00
12413;DHT22;13877;18.896;-99.222;2023-12-22T03:41:04;17.80;1.00
12413;DHT22;13877;18.896;-99.222;2023-12-22T03:43:31;17.80;1.00
12413;DHT22;13877;18.896;-99.222;2023-12-22T03:46:00;17.90;1.00
12413;DHT22;13877;18.896;-99.222;2023-12-22T03:48:27;17.90;1.00
12413;DHT22;13877;18.896;-99.222;2023-12-22T03:50:55;17.90;1.00
12413;DHT22;13877;18.896;-99.222;2023-12-22T03:53:22;18.10;1.00
12413;DHT22;13877;18.896;-99.222;2023-12-22T03:55:52;18.00;1.00
12413;DHT22;13877;18.896;-99.222;2023-12-22T03:58:20;18.10;1.00
12413;DHT22;13877;18.896;-99.222;2023-12-22T04:00:51;18.10;1.00
12413;DHT22;13877;18.896;-99.222;2023-12-22T04:03:19;18.20;1.00
12413;DHT22;13877;18.896;-99.222;2023-12-22T04:05:48;18.10;1.00
12413;DHT22;13877;18.896;-99.222;2023-12-22T04:08:16;18.00;1.00
12413;DHT22;13877;18.896;-99.222;2023-12-22T04:10:47;18.00;1.00
12413;DHT22;13877;18.896;-99.222;2023-12-22T04:13:14;18.00;1.00
12413;DHT22;13877;18.896;-99.222;2023-12-22T04:15:42;18.00;1.00
12413;DHT22;13877;18.896;-99.222;2023-12-22T04:18:10;18.10;1.00
12413;DHT22;13877;18.896;-99.222;2023-12-22T04:20:38;18.00;1.00
12413;DHT22;13877;18.896;-99.222;2023-12-22T04:23:05;18.00;1.00
12413;DHT22;13877;18.896;-99.222;2023-12-22T04:25:32;18.10;1.00
12413;DHT22;13877;18.896;-99.222;2023-12-22T04:27:59;18.20;1.00
12413;DHT22;13877;18.896;-99.222;2023-12-22T04:30:27;18.20;1.00
12413;DHT22;13877;18.896;-99.222;2023-12-22T04:32:58;18.10;1.00
12413;DHT22;13877;18.896;-99.222;2023-12-22T04:35:25;18.10;1.00
12413;DHT22;13877;18.896;-99.222;2023-12-22T04:37:52;18.10;1.00
12413;DHT22;13877;18.896;-99.222;2023-12-22T04:40:20;17.90;1.00
12413;DHT22;13877;18.896;-99.222;2023-12-22T04:42:47;17.70;1.00
12413;DHT22;13877;18.896;-99.222;2023-12-22T04:45:15;17.50;1.00
12413;DHT22;13877;18.896;-99.222;2023-12-22T04:47:44;17.40;1.00
12413;DHT22;13877;18.896;-99.222;2023-12-22T04:50:14;17.30;1.00
12413;DHT22;13877;18.896;-99.222;2023-12-22T04:52:42;17.40;1.00
12413;DHT22;13877;18.896;-99.222;2023-12-22T04:55:09;17.50;1.00
12413;DHT22;13877;18.896;-99.222;2023-12-22T04:57:36;17.50;1.00
12413;DHT22;13877;18.896;-99.222;2023-12-22T05:00:04;17.50;1.00
12413;DHT22;13877;18.896;-99.222;2023-12-22T05:02:31;17.40;1.00
12413;DHT22;13877;18.896;-99.222;2023-12-22T05:04:59;17.50;1.00
12413;DHT22;13877;18.896;-99.222;2023-12-22T05:07:28;17.50;1.00
12413;DHT22;13877;18.896;-99.222;2023-12-22T05:09:55;17.50;1.00
12413;DHT22;13877;18.896;-99.222;2023-12-22T05:12:23;17.40;1.00
12413;DHT22;13877;18.896;-99.222;2023-12-22T05:14:50;17.50;1.00
12413;DHT22;13877;18.896;-99.222;2023-12-22T05:17:18;17.50;1.00
12413;DHT22;13877;18.896;-99.222;2023-12-22T05:19:45;17.40;1.00
12413;DHT22;13877;18.896;-99.222;2023-12-22T05:22:12;17.30;1.00
12413;DHT22;13877;18.896;-99.222;2023-12-22T05:24:40;17.40;1.00
12413;DHT22;13877;18.896;-99.222;2023-12-22T05:27:08;17.70;1.00
12413;DHT22;13877;18.896;-99.222;2023-12-22T05:29:35;17.80;1.00
12413;DHT22;13877;18.896;-99.222;2023-12-22T05:32:03;17.70;1.00
12413;DHT22;13877;18.896;-99.222;2023-12-22T05:34:30;17.50;1.00
12413;DHT22;13877;18.896;-99.222;2023-12-22T05:36:59;17.30;1.00
12413;DHT22;13877;18.896;-99.222;2023-12-22T05:39:27;17.40;1.00
12413;DHT22;13877;18.896;-99.222;2023-12-22T05:41:54;17.50;1.00
12413;DHT22;13877;18.896;-99.222;2023-12-22T05:44:22;17.70;1.00
12413;DHT22;13877;18.896;-99.222;2023-12-22T05:46:50;17.70;1.00
12413;DHT22;13877;18.896;-99.222;2023-12-22T05:49:21;17.70;1.00
12413;DHT22;13877;18.896;-99.222;2023-12-22T05:51:48;17.70;1.00
12413;DHT22;13877;18.896;-99.222;2023-12-22T05:54:16;17.60;1.00
12413;DHT22;13877;18.896;-99.222;2023-12-22T05:56:46;17.60;1.00
12413;DHT22;13877;18.896;-99.222;2023-12-22T05:59:14;17.70;1.00
12413;DHT22;13877;18.896;-99.222;2023-12-22T06:01:44;17.90;1.00
12413;DHT22;13877;18.896;-99.222;2023-12-22T06:04:12;17.90;1.00
12413;DHT22;13877;18.896;-99.222;2023-12-22T06:06:39;17.80;1.00
12413;DHT22;13877;18.896;-99.222;2023-12-22T06:09:07;18.00;1.00
12413;DHT22;13877;18.896;-99.222;2023-12-22T06:11:34;17.70;1.00
12413;DHT22;13877;18.896;-99.222;2023-12-22T06:14:01;17.30;1.00
12413;DHT22;13877;18.896;-99.222;2023-12-22T06:16:28;17.00;1.00
12413;DHT22;13877;18.896;-99.222;2023-12-22T06:18:56;16.70;1.00
12413;DHT22;13877;18.896;-99.222;2023-12-22T06:21:23;16.20;1.00
12413;DHT22;13877;18.896;-99.222;2023-12-22T06:23:53;16.00;1.00
12413;DHT22;13877;18.896;-99.222;2023-12-22T06:26:20;16.10;1.00
12413;DHT22;13877;18.896;-99.222;2023-12-22T06:28:48;16.10;1.00
12413;DHT22;13877;18.896;-99.222;2023-12-22T06:31:21;16.20;1.00
12413;DHT22;13877;18.896;-99.222;2023-12-22T06:33:51;16.20;1.00
12413;DHT22;13877;18.896;-99.222;2023-12-22T06:36:24;16.30;1.00
12413;DHT22;13877;18.896;-99.222;2023-12-22T06:38:52;16.40;1.00
12413;DHT22;13877;18.896;-99.222;2023-12-22T06:41:29;16.40;1.00
12413;DHT22;13877;18.896;-99.222;2023-12-22T06:43:57;16.40;1.00
12413;DHT22;13877;18.896;-99.222;2023-12-22T06:46:30;16.60;1.00
12413;DHT22;13877;18.896;-99.222;2023-12-22T06:48:57;16.70;1.00
12413;DHT22;13877;18.896;-99.222;2023-12-22T06:51:27;16.70;1.00
12413;DHT22;13877;18.896;-99.222;2023-12-22T06:53:55;16.70;1.00
12413;DHT22;13877;18.896;-99.222;2023-12-22T06:56:24;16.70;1.00
12413;DHT22;13877;18.896;-99.222;2023-12-22T06:58:53;16.50;1.00
12413;DHT22;13877;18.896;-99.222;2023-12-22T07:01:32;16.40;1.00
12413;DHT22;13877;18.896;-99.222;2023-12-22T07:04:02;16.20;1.00
12413;DHT22;13877;18.896;-99.222;2023-12-22T07:06:35;15.90;1.00
12413;DHT22;13877;18.896;-99.222;2023-12-22T07:11:45;15.50;1.00
12413;DHT22;13877;18.896;-99.222;2023-12-22T07:14:12;15.70;1.00
12413;DHT22;13877;18.896;-99.222;2023-12-22T07:16:40;15.90;1.00
12413;DHT22;13877;18.896;-99.222;2023-12-22T07:19:09;15.90;1.00
12413;DHT22;13877;18.896;-99.222;2023-12-22T07:21:37;15.90;1.00
12413;DHT22;13877;18.896;-99.222;2023-12-22T07:24:05;16.10;1.00
12413;DHT22;13877;18.896;-99.222;2023-12-22T07:26:33;16.20;1.00
12413;DHT22;13877;18.896;-99.222;2023-12-22T07:29:00;16.40;1.00
12413;DHT22;13877;18.896;-99.222;2023-12-22T07:31:27;16.60;1.00
12413;DHT22;13877;18.896;-99.222;2023-12-22T07:33:55;16.60;1.00
12413;DHT22;13877;18.896;-99.222;2023-12-22T07:36:22;16.70;1.00
12413;DHT22;13877;18.896;-99.222;2023-12-22T07:38:49;16.70;1.00
12413;DHT22;13877;18.896;-99.222;2023-12-22T07:41:17;16.60;1.00
12413;DHT22;13877;18.896;-99.222;2023-12-22T07:43:44;16.60;1.00
12413;DHT22;13877;18.896;-99.222;2023-12-22T07:46:20;16.50;1.00
12413;DHT22;13877;18.896;-99.222;2023-12-22T07:48:49;16.40;1.00
12413;DHT22;13877;18.896;-99.222;2023-12-22T07:51:18;16.20;1.00
12413;DHT22;13877;18.896;-99.222;2023-12-22T07:53:45;16.00;1.00
12413;DHT22;13877;18.896;-99.222;2023-12-22T07:56:13;15.90;1.00
12413;DHT22;13877;18.896;-99.222;2023-12-22T07:58:40;15.80;1.00
12413;DHT22;13877;18.896;-99.222;2023-12-22T08:01:07;15.70;1.00
12413;DHT22;13877;18.896;-99.222;2023-12-22T08:03:35;15.50;1.00
12413;DHT22;13877;18.896;-99.222;2023-12-22T08:06:04;15.50;1.00
12413;DHT22;13877;18.896;-99.222;2023-12-22T08:08:31;15.50;1.00
12413;DHT22;13877;18.896;-99.222;2023-12-22T08:11:00;15.50;1.00
12413;DHT22;13877;18.896;-99.222;2023-12-22T08:13:27;15.30;1.00
12413;DHT22;13877;18.896;-99.222;2023-12-22T08:15:55;15.20;1.00
12413;DHT22;13877;18.896;-99.222;2023-12-22T08:18:22;15.00;1.00
12413;DHT22;13877;18.896;-99.222;2023-12-22T08:20:49;15.00;1.00
12413;DHT22;13877;18.896;-99.222;2023-12-22T08:23:17;15.00;1.00
12413;DHT22;13877;18.896;-99.222;2023-12-22T08:25:44;14.90;1.00
12413;DHT22;13877;18.896;-99.222;2023-12-22T08:28:11;15.00;1.00
12413;DHT22;13877;18.896;-99.222;2023-12-22T08:30:39;15.10;1.00
12413;DHT22;13877;18.896;-99.222;2023-12-22T08:33:07;14.70;1.00
12413;DHT22;13877;18.896;-99.222;2023-12-22T08:35:34;14.60;1.00
12413;DHT22;13877;18.896;-99.222;2023-12-22T08:38:02;14.80;1.00
12413;DHT22;13877;18.896;-99.222;2023-12-22T08:40:29;14.70;1.00
12413;DHT22;13877;18.896;-99.222;2023-12-22T08:42:56;14.60;1.00
12413;DHT22;13877;18.896;-99.222;2023-12-22T08:45:28;14.60;1.00
12413;DHT22;13877;18.896;-99.222;2023-12-22T08:47:58;14.50;1.00
12413;DHT22;13877;18.896;-99.222;2023-12-22T08:50:25;14.70;1.00
12413;DHT22;13877;18.896;-99.222;2023-12-22T08:52:53;14.90;1.00
12413;DHT22;13877;18.896;-99.222;2023-12-22T08:55:20;14.90;1.00
12413;DHT22;13877;18.896;-99.222;2023-12-22T08:57:47;15.00;1.00
12413;DHT22;13877;18.896;-99.222;2023-12-22T09:00:15;14.90;1.00
12413;DHT22;13877;18.896;-99.222;2023-12-22T09:02:42;14.70;1.00
12413;DHT22;13877;18.896;-99.222;2023-12-22T09:05:09;14.80;1.00
12413;DHT22;13877;18.896;-99.222;2023-12-22T09:07:37;14.80;1.00
12413;DHT22;13877;18.896;-99.222;2023-12-22T09:10:04;14.70;1.00
12413;DHT22;13877;18.896;-99.222;2023-12-22T09:12:31;14.60;1.00
12413;DHT22;13877;18.896;-99.222;2023-12-22T09:14:59;14.60;1.00
12413;DHT22;13877;18.896;-99.222;2023-12-22T09:17:27;14.70;1.00
12413;DHT22;13877;18.896;-99.222;2023-12-22T09:19:55;14.80;1.00
12413;DHT22;13877;18.896;-99.222;2023-12-22T09:22:22;14.50;1.00
12413;DHT22;13877;18.896;-99.222;2023-12-22T09:24:49;14.30;1.00
12413;DHT22;13877;18.896;-99.222;2023-12-22T09:27:17;14.20;1.00
12413;DHT22;13877;18.896;-99.222;2023-12-22T09:29:44;14.10;1.00
12413;DHT22;13877;18.896;-99.222;2023-12-22T09:32:11;14.00;1.00
12413;DHT22;13877;18.896;-99.222;2023-12-22T09:34:38;14.00;1.00
12413;DHT22;13877;18.896;-99.222;2023-12-22T09:37:07;13.90;1.00
12413;DHT22;13877;18.896;-99.222;2023-12-22T09:39:35;14.00;1.00
12413;DHT22;13877;18.896;-99.222;2023-12-22T09:42:05;14.00;1.00
12413;DHT22;13877;18.896;-99.222;2023-12-22T09:44:33;14.20;1.00
12413;DHT22;13877;18.896;-99.222;2023-12-22T09:47:04;14.10;1.00
12413;DHT22;13877;18.896;-99.222;2023-12-22T09:49:35;13.80;1.00
12413;DHT22;13877;18.896;-99.222;2023-12-22T09:52:06;13.60;1.00
12413;DHT22;13877;18.896;-99.222;2023-12-22T09:54:35;13.50;1.00
12413;DHT22;13877;18.896;-99.222;2023-12-22T09:57:04;13.70;1.00
12413;DHT22;13877;18.896;-99.222;2023-12-22T09:59:32;13.70;1.00
12413;DHT22;13877;18.896;-99.222;2023-12-22T10:02:00;13.70;1.00
12413;DHT22;13877;18.896;-99.222;2023-12-22T10:04:29;13.70;1.00
12413;DHT22;13877;18.896;-99.222;2023-12-22T10:06:59;14.00;1.00
12413;DHT22;13877;18.896;-99.222;2023-12-22T10:09:29;14.00;1.00
12413;DHT22;13877;18.896;-99.222;2023-12-22T10:11:57;14.10;1.00
12413;DHT22;13877;18.896;-99.222;2023-12-22T10:14:26;14.00;1.00
12413;DHT22;13877;18.896;-99.222;2023-12-22T10:16:54;13.90;1.00
12413;DHT22;13877;18.896;-99.222;2023-12-22T10:19:22;13.50;1.00
12413;DHT22;13877;18.896;-99.222;2023-12-22T10:21:50;13.20;1.00
12413;DHT22;13877;18.896;-99.222;2023-12-22T10:24:47;13.00;1.00
12413;DHT22;13877;18.896;-99.222;2023-12-22T10:27:15;13.10;1.00
12413;DHT22;13877;18.896;-99.222;2023-12-22T10:29:55;13.40;1.00
12413;DHT22;13877;18.896;-99.222;2023-12-22T10:32:22;13.60;1.00
12413;DHT22;13877;18.896;-99.222;2023-12-22T10:34:53;13.80;1.00
12413;DHT22;13877;18.896;-99.222;2023-12-22T10:37:21;13.90;1.00
12413;DHT22;13877;18.896;-99.222;2023-12-22T10:39:54;13.70;1.00
12413;DHT22;13877;18.896;-99.222;2023-12-22T10:42:22;13.50;1.00
12413;DHT22;13877;18.896;-99.222;2023-12-22T10:44:49;13.30;1.00
12413;DHT22;13877;18.896;-99.222;2023-12-22T10:47:17;13.20;1.00
12413;DHT22;13877;18.896;-99.222;2023-12-22T10:49:46;13.10;1.00
12413;DHT22;13877;18.896;-99.222;2023-12-22T10:52:17;13.20;1.00
12413;DHT22;13877;18.896;-99.222;2023-12-22T10:54:45;13.10;1.00
12413;DHT22;13877;18.896;-99.222;2023-12-22T10:57:12;13.10;1.00
12413;DHT22;13877;18.896;-99.222;2023-12-22T10:59:45;12.70;1.00
12413;DHT22;13877;18.896;-99.222;2023-12-22T11:02:17;12.50;1.00
12413;DHT22;13877;18.896;-99.222;2023-12-22T11:05:04;12.60;1.00
12413;DHT22;13877;18.896;-99.222;2023-12-22T11:07:36;12.60;1.00
12413;DHT22;13877;18.896;-99.222;2023-12-22T11:10:04;12.80;1.00
12413;DHT22;13877;18.896;-99.222;2023-12-22T11:12:36;12.90;1.00
12413;DHT22;13877;18.896;-99.222;2023-12-22T11:15:06;12.80;1.00
12413;DHT22;13877;18.896;-99.222;2023-12-22T11:17:36;12.60;1.00
12413;DHT22;13877;18.896;-99.222;2023-12-22T11:20:09;12.40;1.00
12413;DHT22;13877;18.896;-99.222;2023-12-22T11:22:37;12.20;1.00
12413;DHT22;13877;18.896;-99.222;2023-12-22T11:25:07;12.20;1.00
12413;DHT22;13877;18.896;-99.222;2023-12-22T11:27:37;12.30;1.00
12413;DHT22;13877;18.896;-99.222;2023-12-22T11:30:06;12.20;1.00
12413;DHT22;13877;18.896;-99.222;2023-12-22T11:32:39;12.10;1.00
12413;DHT22;13877;18.896;-99.222;2023-12-22T11:35:07;12.20;1.00
12413;DHT22;13877;18.896;-99.222;2023-12-22T11:37:36;12.50;1.00
12413;DHT22;13877;18.896;-99.222;2023-12-22T11:40:06;12.20;1.00
12413;DHT22;13877;18.896;-99.222;2023-12-22T11:42:47;12.30;1.00
12413;DHT22;13877;18.896;-99.222;2023-12-22T11:45:17;12.20;1.00
12413;DHT22;13877;18.896;-99.222;2023-12-22T11:47:47;12.40;1.00
12413;DHT22;13877;18.896;-99.222;2023-12-22T11:50:29;12.20;1.00
12413;DHT22;13877;18.896;-99.222;2023-12-22T11:53:23;12.30;1.00
12413;DHT22;13877;18.896;-99.222;2023-12-22T11:56:03;12.50;1.00
12413;DHT22;13877;18.896;-99.222;2023-12-22T11:58:47;12.60;1.00
12413;DHT22;13877;18.896;-99.222;2023-12-22T12:01:22;12.50;1.00
12413;DHT22;13877;18.896;-99.222;2023-12-22T12:09:00;12.50;1.00
12413;DHT22;13877;18.896;-99.222;2023-12-22T12:14:32;12.40;1.00
12413;DHT22;13877;18.896;-99.222;2023-12-22T12:17:06;12.30;1.00
12413;DHT22;13877;18.896;-99.222;2023-12-22T12:19:40;12.10;1.00
12413;DHT22;13877;18.896;-99.222;2023-12-22T12:22:14;11.90;1.00
12413;DHT22;13877;18.896;-99.222;2023-12-22T12:24:42;11.90;1.00
12413;DHT22;13877;18.896;-99.222;2023-12-22T12:27:09;12.00;1.00
12413;DHT22;13877;18.896;-99.222;2023-12-22T12:29:37;12.00;1.00
12413;DHT22;13877;18.896;-99.222;2023-12-22T12:32:15;12.00;1.00
12413;DHT22;13877;18.896;-99.222;2023-12-22T12:34:47;11.90;1.00
12413;DHT22;13877;18.896;-99.222;2023-12-22T12:37:16;11.80;1.00
12413;DHT22;13877;18.896;-99.222;2023-12-22T12:39:47;11.80;1.00
12413;DHT22;13877;18.896;-99.222;2023-12-22T12:42:16;11.80;1.00
12413;DHT22;13877;18.896;-99.222;2023-12-22T12:44:44;12.00;1.00
12413;DHT22;13877;18.896;-99.222;2023-12-22T12:47:16;11.90;1.00
12413;DHT22;13877;18.896;-99.222;2023-12-22T12:49:43;12.10;1.00
12413;DHT22;13877;18.896;-99.222;2023-12-22T12:52:14;12.30;1.00
12413;DHT22;13877;18.896;-99.222;2023-12-22T12:54:42;12.70;1.00
12413;DHT22;13877;18.896;-99.222;2023-12-22T12:57:16;12.70;1.00
12413;DHT22;13877;18.896;-99.222;2023-12-22T12:59:46;12.70;1.00
12413;DHT22;13877;18.896;-99.222;2023-12-22T13:02:18;12.40;1.00
12413;DHT22;13877;18.896;-99.222;2023-12-22T13:04:47;12.20;1.00
12413;DHT22;13877;18.896;-99.222;2023-12-22T13:07:24;12.00;1.00
12413;DHT22;13877;18.896;-99.222;2023-12-22T13:09:54;11.70;1.00
12413;DHT22;13877;18.896;-99.222;2023-12-22T13:12:23;11.60;1.00
12413;DHT22;13877;18.896;-99.222;2023-12-22T13:14:51;11.80;1.00
12413;DHT22;13877;18.896;-99.222;2023-12-22T13:17:18;12.20;1.00
12413;DHT22;13877;18.896;-99.222;2023-12-22T13:19:47;12.20;1.00
12413;DHT22;13877;18.896;-99.222;2023-12-22T13:22:14;12.00;1.00
12413;DHT22;13877;18.896;-99.222;2023-12-22T13:24:42;11.80;1.00
12413;DHT22;13877;18.896;-99.222;2023-12-22T13:27:21;11.70;1.00
12413;DHT22;13877;18.896;-99.222;2023-12-22T13:29:48;11.60;1.00
12413;DHT22;13877;18.896;-99.222;2023-12-22T13:32:20;11.70;1.00
12413;DHT22;13877;18.896;-99.222;2023-12-22T13:34:52;11.70;1.00
12413;DHT22;13877;18.896;-99.222;2023-12-22T13:37:20;12.00;1.00
12413;DHT22;13877;18.896;-99.222;2023-12-22T13:39:49;12.00;1.00
12413;DHT22;13877;18.896;-99.222;2023-12-22T13:42:18;12.00;1.00
12413;DHT22;13877;18.896;-99.222;2023-12-22T13:44:49;12.10;1.00
12413;DHT22;13877;18.896;-99.222;2023-12-22T13:47:19;12.60;1.00
12413;DHT22;13877;18.896;-99.222;2023-12-22T13:49:48;12.90;1.00
12413;DHT22;13877;18.896;-99.222;2023-12-22T13:52:29;13.00;1.00
12413;DHT22;13877;18.896;-99.222;2023-12-22T13:55:09;13.40;1.00
12413;DHT22;13877;18.896;-99.222;2023-12-22T13:57:39;13.60;1.00
12413;DHT22;13877;18.896;-99.222;2023-12-22T14:02:48;14.50;1.00
12413;DHT22;13877;18.896;-99.222;2023-12-22T14:05:21;15.10;1.00
12413;DHT22;13877;18.896;-99.222;2023-12-22T14:07:49;15.70;1.00
12413;DHT22;13877;18.896;-99.222;2023-12-22T14:10:17;16.20;1.00
12413;DHT22;13877;18.896;-99.222;2023-12-22T14:12:46;16.40;1.00
12413;DHT22;13877;18.896;-99.222;2023-12-22T14:15:13;16.70;1.00
12413;DHT22;13877;18.896;-99.222;2023-12-22T14:17:40;16.50;1.00
12413;DHT22;13877;18.896;-99.222;2023-12-22T14:20:15;16.20;1.00
12413;DHT22;13877;18.896;-99.222;2023-12-22T14:22:44;16.10;1.00
12413;DHT22;13877;18.896;-99.222;2023-12-22T14:25:11;16.20;1.00
12413;DHT22;13877;18.896;-99.222;2023-12-22T14:27:38;16.10;1.00
12413;DHT22;13877;18.896;-99.222;2023-12-22T14:30:06;16.10;1.00
12413;DHT22;13877;18.896;-99.222;2023-12-22T14:32:33;16.30;1.00
12413;DHT22;13877;18.896;-99.222;2023-12-22T14:35:01;16.60;1.00
12413;DHT22;13877;18.896;-99.222;2023-12-22T14:37:28;16.70;1.00
12413;DHT22;13877;18.896;-99.222;2023-12-22T14:39:55;16.90;1.00
12413;DHT22;13877;18.896;-99.222;2023-12-22T14:42:23;16.70;1.00
12413;DHT22;13877;18.896;-99.222;2023-12-22T14:44:50;16.50;1.00
12413;DHT22;13877;18.896;-99.222;2023-12-22T14:47:18;16.30;1.00
12413;DHT22;13877;18.896;-99.222;2023-12-22T14:49:45;16.60;1.00
12413;DHT22;13877;18.896;-99.222;2023-12-22T14:52:13;17.10;1.00
12413;DHT22;13877;18.896;-99.222;2023-12-22T14:54:40;17.70;1.00
12413;DHT22;13877;18.896;-99.222;2023-12-22T14:57:11;18.10;1.00
12413;DHT22;13877;18.896;-99.222;2023-12-22T14:59:43;18.30;1.00
12413;DHT22;13877;18.896;-99.222;2023-12-22T15:02:11;18.60;1.00
12413;DHT22;13877;18.896;-99.222;2023-12-22T15:04:38;18.70;1.00
12413;DHT22;13877;18.896;-99.222;2023-12-22T15:07:06;18.70;1.00
12413;DHT22;13877;18.896;-99.222;2023-12-22T15:09:33;18.60;1.00
12413;DHT22;13877;18.896;-99.222;2023-12-22T15:12:01;18.40;1.00
12413;DHT22;13877;18.896;-99.222;2023-12-22T15:14:29;18.30;1.00
12413;DHT22;13877;18.896;-99.222;2023-12-22T15:16:56;18.20;1.00
12413;DHT22;13877;18.896;-99.222;2023-12-22T15:19:24;18.50;1.00
12413;DHT22;13877;18.896;-99.222;2023-12-22T15:28:43;19.40;1.00
12413;DHT22;13877;18.896;-99.222;2023-12-22T15:31:11;19.60;1.00
12413;DHT22;13877;18.896;-99.222;2023-12-22T15:33:41;19.60;1.00
12413;DHT22;13877;18.896;-99.222;2023-12-22T15:36:10;19.40;1.00
12413;DHT22;13877;18.896;-99.222;2023-12-22T15:38:37;19.80;1.00
12413;DHT22;13877;18.896;-99.222;2023-12-22T15:41:05;19.10;1.00
12413;DHT22;13877;18.896;-99.222;2023-12-22T15:43:32;19.30;1.00
12413;DHT22;13877;18.896;-99.222;2023-12-22T15:46:04;19.70;1.00
12413;DHT22;13877;18.896;-99.222;2023-12-22T15:48:36;20.00;1.00